Time;durP1;ratioP1;P1;durP2;ratioP2;P2;SDS_P1;SDS_P2;PMS_P1;PMS_P2;Temp;Humidity;BMP_temperature;BMP_pressure;BME280_temperature;BME280_humidity;BME280_pressure;Samples;Min_cycle;Max_cycle;Signal;HPM_P1;HPM_P2
2023/01/03 00:00:50;;;;;;;0.80;0.80;;;;;;;11.15;73.77;99784.97;4986200;28;103275;-67
2023/01/03 00:03:19;;;;;;;1.13;0.90;;;;;;;11.05;73.28;99774.94;4992405;28;103189;-67
2023/01/03 00:05:48;;;;;;;0.90;0.73;;;;;;;11.11;73.28;99780.81;4998728;28;103800;-67
2023/01/03 00:08:16;;;;;;;0.67;0.67;;;;;;;11.24;73.07;99781.78;4998485;28;102704;-67
2023/01/03 00:10:44;;;;;;;1.67;1.10;;;;;;;11.14;72.72;99788.56;4991813;28;103427;-67
2023/01/03 00:13:11;;;;;;;2.30;0.90;;;;;;;11.10;72.97;99787.03;4998392;28;103230;-67
2023/01/03 00:15:39;;;;;;;0.70;0.70;;;;;;;11.06;72.80;99808.34;4998201;28;102675;-67
2023/01/03 00:18:07;;;;;;;1.47;0.80;;;;;;;11.14;72.75;99799.16;4995054;28;104165;-67
2023/01/03 00:20:35;;;;;;;0.70;0.70;;;;;;;11.23;72.35;99806.56;4992457;28;103260;-68
2023/01/03 00:23:04;;;;;;;0.80;0.80;;;;;;;11.09;73.06;99809.16;4993301;28;103094;-67
2023/01/03 00:25:32;;;;;;;0.73;0.70;;;;;;;11.21;72.64;99821.66;4995273;28;102585;-67
2023/01/03 00:28:00;;;;;;;1.23;0.80;;;;;;;10.84;73.29;99809.66;4993626;28;103181;-67
2023/01/03 00:30:28;;;;;;;0.57;0.57;;;;;;;11.02;72.98;99795.41;4997700;28;103930;-67
2023/01/03 00:32:56;;;;;;;1.27;0.80;;;;;;;11.09;72.94;99807.31;4996969;28;103273;-67
2023/01/03 00:35:24;;;;;;;0.80;0.77;;;;;;;10.94;72.69;99803.78;4997164;28;102641;-67
2023/01/03 00:37:51;;;;;;;1.40;1.00;;;;;;;10.75;73.60;99796.97;4997697;28;102673;-68
2023/01/03 00:40:22;;;;;;;1.20;0.87;;;;;;;10.71;73.91;99804.22;4990771;28;103995;-67
2023/01/03 00:45:35;;;;;;;1.43;1.00;;;;;;;10.88;73.25;99808.56;4997800;28;102612;-67
2023/01/03 00:48:03;;;;;;;1.43;1.23;;;;;;;10.77;73.51;99801.22;4999923;28;102667;-67
2023/01/03 00:50:30;;;;;;;0.67;0.67;;;;;;;11.01;72.64;99806.91;4997595;28;104033;-67
2023/01/03 00:52:58;;;;;;;2.33;1.00;;;;;;;10.99;72.86;99809.66;4996348;28;103184;-67
2023/01/03 00:55:28;;;;;;;0.90;0.80;;;;;;;10.78;73.22;99800.25;5000609;28;102972;-67
2023/01/03 00:57:56;;;;;;;0.60;0.60;;;;;;;10.41;74.11;99805.91;4997437;28;102903;-68
2023/01/03 01:00:23;;;;;;;0.70;0.60;;;;;;;10.49;74.84;99811.63;5000391;28;104087;-68
2023/01/03 01:02:52;;;;;;;4.33;0.90;;;;;;;10.61;74.00;99808.28;5001966;28;103210;-67
2023/01/03 01:05:21;;;;;;;0.80;0.80;;;;;;;10.66;73.78;99810.69;5008131;28;102708;-67
2023/01/03 01:12:03;;;;;;;1.37;1.20;;;;;;;10.39;74.80;99805.09;4989693;28;103188;-67
2023/01/03 01:14:32;;;;;;;1.37;1.10;;;;;;;10.31;75.18;99796.75;4992405;28;102995;-67
2023/01/03 01:17:01;;;;;;;1.20;1.10;;;;;;;9.95;76.28;99788.09;4991512;28;103726;-67
2023/01/03 01:19:33;;;;;;;0.87;0.83;;;;;;;10.37;74.95;99785.84;4993743;28;103821;-68
2023/01/03 01:22:02;;;;;;;0.87;0.80;;;;;;;10.63;74.06;99793.22;4991832;28;103510;-67
2023/01/03 01:24:30;;;;;;;1.27;0.90;;;;;;;10.65;73.67;99807.19;4991392;28;104660;-67
2023/01/03 01:26:59;;;;;;;1.27;1.00;;;;;;;10.76;73.16;99804.78;4989572;28;105476;-67
2023/01/03 01:29:28;;;;;;;0.67;0.60;;;;;;;10.79;72.76;99804.63;4993162;28;103770;-68
2023/01/03 01:31:58;;;;;;;1.20;0.73;;;;;;;10.86;72.67;99805.97;4990081;28;103266;-68
2023/01/03 01:34:28;;;;;;;0.70;0.70;;;;;;;10.84;72.82;99815.78;4992690;28;103327;-67
2023/01/03 01:36:57;;;;;;;0.70;0.70;;;;;;;10.82;72.71;99812.38;4989050;28;102714;-68
2023/01/03 01:39:27;;;;;;;1.73;0.60;;;;;;;10.87;72.64;99822.69;4991650;28;103416;-67
2023/01/03 01:44:56;;;;;;;0.80;0.63;;;;;;;10.38;75.04;99813.97;4999315;28;103207;-68
2023/01/03 01:47:41;;;;;;;1.10;0.70;;;;;;;10.56;73.56;99815.59;4993492;28;102902;-68
2023/01/03 01:50:18;;;;;;;0.60;0.60;;;;;;;10.68;73.64;99816.72;4996898;28;103822;-68
2023/01/03 01:52:50;;;;;;;1.67;0.77;;;;;;;10.63;73.75;99824.06;4994570;28;103313;-68
2023/01/03 01:55:26;;;;;;;0.80;0.80;;;;;;;10.56;73.85;99820.91;4993751;28;103267;-68
2023/01/03 01:57:54;;;;;;;0.60;0.60;;;;;;;10.58;73.80;99832.25;4991565;28;102759;-67
2023/01/03 02:00:23;;;;;;;2.40;0.80;;;;;;;10.40;73.97;99834.09;4995867;28;102668;-68
2023/01/03 02:02:53;;;;;;;0.70;0.70;;;;;;;10.52;73.94;99831.72;4993651;28;103443;-68
2023/01/03 02:05:23;;;;;;;1.23;0.80;;;;;;;10.55;73.61;99834.22;4995402;28;103293;-68
2023/01/03 02:07:52;;;;;;;1.83;0.60;;;;;;;10.52;73.69;99832.59;4992359;28;102630;-67
2023/01/03 02:10:29;;;;;;;1.03;0.80;;;;;;;10.46;73.93;99823.19;4993679;28;102633;-67
2023/01/03 02:13:09;;;;;;;2.20;0.80;;;;;;;10.50;73.84;99826.50;4993090;28;103428;-67
2023/01/03 02:16:00;;;;;;;0.70;0.70;;;;;;;10.56;73.76;99822.69;4993164;28;103246;-67
2023/01/03 02:18:38;;;;;;;0.70;0.70;;;;;;;10.59;73.34;99823.38;4992020;28;104719;-68
2023/01/03 02:21:34;;;;;;;0.53;0.53;;;;;;;10.46;73.25;99835.56;4991498;28;104132;-67
2023/01/03 02:24:34;;;;;;;0.70;0.70;;;;;;;10.38;73.73;99850.97;4991896;28;103628;-67
2023/01/03 02:31:25;;;;;;;0.70;0.60;;;;;;;10.34;74.24;99837.06;4994826;28;103102;-67
2023/01/03 02:33:59;;;;;;;1.97;0.90;;;;;;;10.41;73.81;99845.53;4993371;28;103757;-67
2023/01/03 02:36:36;;;;;;;0.83;0.70;;;;;;;10.55;73.59;99844.78;4996916;28;103296;-67
2023/01/03 02:39:12;;;;;;;1.17;0.83;;;;;;;10.45;73.57;99836.47;4991334;28;103173;-68
2023/01/03 02:41:45;;;;;;;0.70;0.70;;;;;;;10.51;73.69;99840.56;4991272;28;102690;-68
2023/01/03 02:44:22;;;;;;;0.83;0.83;;;;;;;10.35;73.76;99830.00;4994439;28;104057;-68
2023/01/03 02:46:56;;;;;;;1.53;1.00;;;;;;;10.32;74.11;99831.03;4991523;28;103999;-67
2023/01/03 02:49:30;;;;;;;0.63;0.63;;;;;;;10.39;74.08;99834.16;4991960;28;103195;-68
2023/01/03 02:52:01;;;;;;;1.80;0.90;;;;;;;10.22;73.98;99839.47;4995660;28;102705;-67
2023/01/03 02:54:34;;;;;;;1.57;0.70;;;;;;;10.13;74.95;99824.16;4996871;28;102725;-67
2023/01/03 02:57:07;;;;;;;1.00;1.00;;;;;;;9.90;75.49;99838.53;4999306;28;104345;-67
2023/01/03 02:59:38;;;;;;;1.13;0.83;;;;;;;9.86;76.03;99842.22;4990158;28;103250;-68
2023/01/03 03:02:10;;;;;;;1.33;0.90;;;;;;;9.65;76.69;99844.19;4995110;28;102908;-68
2023/01/03 03:04:40;;;;;;;0.80;0.80;;;;;;;9.98;76.08;99852.16;4996279;28;102754;-67
2023/01/03 03:07:14;;;;;;;1.17;0.70;;;;;;;10.11;74.94;99840.03;4996813;28;104189;-67
2023/01/03 03:25:35;;;;;;;0.80;0.80;;;;;;;9.75;75.78;99834.00;4967421;28;102684;-67
2023/01/03 03:30:56;;;;;;;0.87;0.80;;;;;;;9.62;77.13;99830.31;4990018;28;102642;-67
2023/01/03 03:33:28;;;;;;;2.23;1.20;;;;;;;9.54;76.57;99827.19;4990258;28;103244;-67
2023/01/03 03:36:03;;;;;;;0.93;0.70;;;;;;;9.78;76.51;99829.44;4991526;28;102713;-68
2023/01/03 03:38:34;;;;;;;0.87;0.87;;;;;;;9.75;75.71;99826.97;4986273;28;102715;-67
2023/01/03 03:46:55;;;;;;;0.83;0.70;;;;;;;9.73;75.87;99831.47;4992176;28;102729;-67
2023/01/03 03:49:38;;;;;;;1.37;0.80;;;;;;;9.55;76.57;99836.81;4990149;28;102792;-67
2023/01/03 03:52:12;;;;;;;1.60;0.60;;;;;;;9.46;77.15;99837.28;4992331;28;103274;-67
2023/01/03 03:54:44;;;;;;;0.93;0.87;;;;;;;9.42;77.35;99841.00;4991637;28;103890;-67
2023/01/03 03:57:17;;;;;;;0.73;0.73;;;;;;;9.58;77.07;99848.06;4993584;28;102634;-67
2023/01/03 03:59:50;;;;;;;0.70;0.70;;;;;;;9.65;76.14;99844.19;4990779;28;102970;-67
2023/01/03 04:02:20;;;;;;;2.37;1.00;;;;;;;9.32;76.47;99840.59;4992411;28;103995;-66
2023/01/03 04:04:53;;;;;;;0.80;0.80;;;;;;;9.14;78.17;99852.91;4987736;28;104629;-66
2023/01/03 04:07:23;;;;;;;1.03;0.80;;;;;;;9.31;77.92;99854.72;4992210;28;102688;-66
2023/01/03 04:09:51;;;;;;;1.97;0.80;;;;;;;9.28;77.42;99854.88;4992277;28;104019;-66
2023/01/03 04:12:19;;;;;;;1.10;0.90;;;;;;;9.10;78.43;99853.09;4988179;28;103208;-66
2023/01/03 04:14:46;;;;;;;0.70;0.67;;;;;;;9.14;78.36;99858.19;4990102;28;103217;-66
2023/01/03 04:17:14;;;;;;;1.30;0.83;;;;;;;9.20;77.47;99859.66;4997550;28;102632;-66
2023/01/03 04:19:42;;;;;;;2.03;1.27;;;;;;;8.97;77.64;99852.84;4994222;28;103043;-66
2023/01/03 04:22:10;;;;;;;1.43;1.00;;;;;;;8.80;78.94;99857.19;4997848;28;103382;-66
2023/01/03 04:24:39;;;;;;;2.30;0.90;;;;;;;8.65;80.29;99848.22;4995974;28;103186;-66
2023/01/03 04:27:10;;;;;;;1.53;0.90;;;;;;;8.51;80.94;99862.03;4997054;28;102661;-66
2023/01/03 04:29:38;;;;;;;2.07;1.00;;;;;;;8.54;80.53;99864.53;4996715;28;103558;-66
2023/01/03 04:32:07;;;;;;;1.07;0.97;;;;;;;8.50;80.80;99868.25;5000179;28;104143;-66
2023/01/03 04:34:35;;;;;;;1.37;1.10;;;;;;;8.58;81.05;99868.75;4994533;28;103335;-66
2023/01/03 04:37:03;;;;;;;1.30;1.00;;;;;;;8.75;79.46;99865.34;4999686;28;103045;-67
2023/01/03 04:39:31;;;;;;;2.00;1.03;;;;;;;8.78;79.15;99859.94;4999600;28;102628;-66
2023/01/03 04:42:00;;;;;;;1.23;0.93;;;;;;;8.81;79.09;99858.94;4992190;28;103052;-67
2023/01/03 04:44:27;;;;;;;1.53;1.20;;;;;;;8.90;78.66;99863.78;4993467;28;103929;-67
2023/01/03 04:46:55;;;;;;;0.90;0.73;;;;;;;8.93;77.91;99868.88;4989656;28;102662;-66
2023/01/03 04:49:23;;;;;;;1.67;1.30;;;;;;;8.58;78.91;99874.03;4994221;28;104059;-67
2023/01/03 04:51:51;;;;;;;1.27;1.17;;;;;;;8.48;80.86;99877.13;4994250;28;103254;-67
2023/01/03 04:54:19;;;;;;;1.53;1.40;;;;;;;8.54;80.87;99882.13;4998617;28;103196;-67
2023/01/03 04:56:46;;;;;;;1.20;1.10;;;;;;;8.60;80.44;99885.34;4994461;28;102632;-67
2023/01/03 04:59:16;;;;;;;3.10;1.50;;;;;;;8.52;80.03;99881.34;4997095;28;103206;-67
2023/01/03 05:01:50;;;;;;;1.47;1.33;;;;;;;8.13;82.30;99870.78;4994988;28;103307;-66
2023/01/03 05:04:19;;;;;;;2.37;1.20;;;;;;;8.30;82.43;99875.31;4996741;28;103150;-67
2023/01/03 05:06:47;;;;;;;1.80;1.40;;;;;;;8.35;81.99;99876.84;5007844;28;102822;-66
2023/01/03 05:09:15;;;;;;;2.63;1.30;;;;;;;8.41;81.33;99873.94;4996959;28;104126;-67
2023/01/03 05:11:43;;;;;;;1.93;1.47;;;;;;;8.34;81.26;99877.75;4994253;28;103326;-66
2023/01/03 05:14:10;;;;;;;1.63;1.50;;;;;;;8.15;82.92;99859.25;4996255;28;103191;-67
2023/01/03 05:16:42;;;;;;;1.50;1.10;;;;;;;8.31;82.56;99867.34;4990885;28;102748;-67
2023/01/03 05:19:10;;;;;;;1.30;1.20;;;;;;;8.47;81.80;99862.25;4993410;28;103730;-67
2023/01/03 05:27:10;;;;;;;1.77;1.00;;;;;;;8.70;80.10;99860.25;4993315;28;103066;-67
2023/01/03 05:29:38;;;;;;;1.63;1.10;;;;;;;8.72;79.53;99861.06;4991729;28;102648;-66
2023/01/03 05:32:07;;;;;;;3.83;1.10;;;;;;;8.70;79.50;99857.63;5005380;27;104196;-67
2023/01/03 05:34:35;;;;;;;1.53;1.30;;;;;;;8.56;80.09;99860.03;4995727;28;103017;-67
2023/01/03 05:37:03;;;;;;;1.27;1.17;;;;;;;8.60;80.88;99864.25;5001146;28;103071;-66
2023/01/03 05:39:31;;;;;;;1.93;1.20;;;;;;;8.58;80.25;99879.28;4996728;28;102651;-66
2023/01/03 05:42:01;;;;;;;2.10;1.47;;;;;;;8.54;80.25;99867.16;4992697;28;104050;-67
2023/01/03 05:44:32;;;;;;;2.87;1.33;;;;;;;8.39;81.54;99873.16;4994397;28;103641;-67
2023/01/03 05:47:01;;;;;;;1.43;1.33;;;;;;;8.35;82.48;99895.25;4994129;28;102631;-67
2023/01/03 05:49:34;;;;;;;1.20;1.10;;;;;;;8.46;82.31;99892.16;4995090;28;103319;-68
2023/01/03 05:52:02;;;;;;;1.50;1.40;;;;;;;8.31;82.65;99892.84;4995475;28;103428;-67
2023/01/03 05:54:30;;;;;;;3.63;1.33;;;;;;;8.42;82.46;99899.31;4996939;28;103186;-67
2023/01/03 05:56:58;;;;;;;3.13;2.17;;;;;;;8.37;82.61;99906.56;4999341;28;102715;-67
2023/01/03 05:59:26;;;;;;;1.83;1.60;;;;;;;8.24;82.48;99918.53;4999776;28;102710;-67
2023/01/03 06:01:54;;;;;;;2.20;1.43;;;;;;;8.26;82.65;99903.53;4996745;28;102967;-67
2023/01/03 06:04:22;;;;;;;2.10;1.30;;;;;;;8.20;83.53;99901.16;4998778;28;103175;-67
2023/01/03 06:06:51;;;;;;;1.47;1.27;;;;;;;8.26;83.01;99903.53;5002732;27;102702;-67
2023/01/03 06:09:21;;;;;;;0.90;0.90;;;;;;;8.34;83.13;99901.44;5000264;28;102935;-67
2023/01/03 06:11:49;;;;;;;0.90;0.90;;;;;;;8.44;82.40;99900.13;4994584;28;103180;-67
2023/01/03 06:14:18;;;;;;;1.30;0.97;;;;;;;8.52;81.61;99905.03;4999261;28;103326;-67
2023/01/03 06:19:32;;;;;;;1.57;1.10;;;;;;;8.58;80.27;99904.78;5000333;28;102651;-67
2023/01/03 06:22:01;;;;;;;1.77;1.40;;;;;;;8.54;79.90;99911.09;4998591;28;103252;-67
2023/01/03 06:24:39;;;;;;;3.83;1.50;;;;;;;8.34;80.25;99916.38;4998314;28;103298;-67
2023/01/03 06:27:06;;;;;;;1.80;1.50;;;;;;;7.77;83.69;99919.72;4984703;28;102613;-67
2023/01/03 06:29:34;;;;;;;1.60;1.50;;;;;;;7.54;85.51;99918.91;4999564;28;102657;-67
2023/01/03 06:32:02;;;;;;;1.30;1.20;;;;;;;7.81;84.56;99926.56;4998964;28;103208;-67
2023/01/03 06:34:36;;;;;;;1.50;1.40;;;;;;;8.36;82.12;99915.41;4999507;28;103166;-67
2023/01/03 06:37:05;;;;;;;1.60;1.50;;;;;;;8.73;80.37;99923.34;4998151;28;102651;-67
2023/01/03 06:39:33;;;;;;;1.42;1.33;;;;;;;8.99;79.37;99921.31;4997099;28;102881;-67
2023/01/03 06:42:38;;;;;;;2.35;2.08;;;;;;;8.47;78.03;99930.75;4995509;28;104347;-67
2023/01/03 06:53:13;;;;;;;1.80;1.70;;;;;;;9.12;77.71;99941.75;4995992;28;103980;-66
2023/01/03 06:55:42;;;;;;;2.22;1.77;;;;;;;9.13;77.05;99939.97;5006669;28;103476;-66
2023/01/03 06:58:10;;;;;;;2.85;2.30;;;;;;;8.70;76.91;99936.66;4995056;28;103010;-67
2023/01/03 07:00:40;;;;;;;1.48;1.38;;;;;;;9.09;77.46;99934.00;4992397;28;102605;-66
2023/01/03 07:03:08;;;;;;;1.77;1.63;;;;;;;9.19;76.03;99942.31;4989300;28;103389;-66
2023/01/03 07:05:39;;;;;;;2.47;1.83;;;;;;;9.05;76.22;99942.09;4994972;28;104273;-66
2023/01/03 07:08:08;;;;;;;2.70;2.10;;;;;;;8.92;76.44;99954.16;4989549;28;103053;-66
2023/01/03 07:10:36;;;;;;;2.33;1.92;;;;;;;9.11;76.42;99949.75;4982563;28;102739;-66
2023/01/03 07:15:50;;;;;;;1.75;1.65;;;;;;;9.40;75.52;99949.22;4991084;28;103246;-66
2023/01/03 07:18:18;;;;;;;4.30;2.50;;;;;;;9.17;76.53;99949.47;4989489;28;103264;-66
2023/01/03 07:20:46;;;;;;;2.50;2.25;;;;;;;9.32;76.43;99951.34;4987014;28;102876;-66
2023/01/03 07:23:15;;;;;;;1.50;1.40;;;;;;;9.45;75.61;99949.00;4991861;28;103383;-66
2023/01/03 07:25:43;;;;;;;3.90;2.37;;;;;;;9.41;74.35;99953.56;4989646;28;103225;-65
2023/01/03 07:28:13;;;;;;;4.03;2.60;;;;;;;9.27;75.21;99966.53;4994260;28;102645;-66
2023/01/03 07:30:43;;;;;;;2.60;1.77;;;;;;;9.37;73.73;99965.19;4995084;28;103796;-66
2023/01/03 07:33:13;;;;;;;2.45;1.80;;;;;;;9.37;74.37;99962.56;4996927;28;103256;-66
2023/01/03 07:35:41;;;;;;;2.72;2.00;;;;;;;9.30;74.13;99958.50;4989812;28;103220;-66
2023/01/03 07:38:10;;;;;;;3.25;2.30;;;;;;;9.18;74.68;99959.91;4985374;28;102912;-66
2023/01/03 07:40:40;;;;;;;2.10;1.88;;;;;;;9.31;75.08;99970.75;4995389;28;102777;-65
2023/01/03 07:45:55;;;;;;;2.28;1.80;;;;;;;9.50;73.77;99976.88;4993191;28;103470;-66
2023/01/03 07:48:23;;;;;;;2.25;1.73;;;;;;;9.57;73.32;99978.28;4989688;28;102700;-66
2023/01/03 07:50:56;;;;;;;2.80;1.60;;;;;;;9.52;74.55;99980.28;4984705;28;103028;-66
2023/01/03 07:53:25;;;;;;;2.57;1.80;;;;;;;9.66;74.24;99977.84;4982932;28;103261;-66
2023/01/03 07:55:54;;;;;;;2.35;1.60;;;;;;;9.88;73.98;99972.34;4987816;28;103166;-66
2023/01/03 07:58:22;;;;;;;4.00;2.05;;;;;;;9.86;73.92;99980.34;4987617;28;102866;-66
2023/01/03 08:00:51;;;;;;;3.17;1.83;;;;;;;10.06;73.19;99986.44;4981518;28;103050;-66
2023/01/03 08:03:19;;;;;;;3.40;2.08;;;;;;;10.08;73.05;99985.41;4987239;28;103766;-66
2023/01/03 08:05:47;;;;;;;2.88;1.90;;;;;;;10.31;72.24;99986.94;4990520;28;103214;-66
2023/01/03 08:08:15;;;;;;;5.80;2.30;;;;;;;10.25;71.87;99993.38;4989231;28;102694;-66
2023/01/03 08:13:30;;;;;;;3.45;2.40;;;;;;;9.74;73.14;99991.50;4990799;28;103910;-66
2023/01/03 08:15:57;;;;;;;3.15;2.40;;;;;;;10.02;73.70;99995.44;4992934;28;103273;-66
2023/01/03 08:18:28;;;;;;;2.83;2.47;;;;;;;10.06;73.37;100000.50;4987125;28;102939;-67
2023/01/03 08:20:56;;;;;;;4.47;2.60;;;;;;;10.21;72.55;100001.56;4989415;28;103016;-66
2023/01/03 08:23:24;;;;;;;5.03;2.38;;;;;;;10.38;72.56;100004.19;4982146;28;103335;-67
2023/01/03 08:25:59;;;;;;;2.70;2.20;;;;;;;10.55;72.05;100001.53;4988680;28;103225;-67
2023/01/03 08:28:27;;;;;;;3.30;2.35;;;;;;;10.54;71.88;99989.25;4990018;28;103083;-66
2023/01/03 08:30:58;;;;;;;3.33;2.92;;;;;;;10.35;71.81;99989.34;4992566;28;104411;-67
2023/01/03 08:33:28;;;;;;;5.30;3.50;;;;;;;10.53;71.37;99992.81;4988652;28;103265;-67
2023/01/03 08:36:02;;;;;;;4.97;2.60;;;;;;;10.70;70.58;99990.16;4989985;28;103192;-66
2023/01/03 08:38:37;;;;;;;3.23;2.53;;;;;;;10.75;70.24;99990.75;4991413;28;102715;-66
2023/01/03 08:41:08;;;;;;;3.97;2.92;;;;;;;10.82;69.55;99986.00;4988653;28;104090;-67
2023/01/03 08:43:40;;;;;;;3.47;3.17;;;;;;;10.79;70.12;100000.25;4984322;28;103341;-67
2023/01/03 08:46:12;;;;;;;3.22;2.60;;;;;;;10.89;69.65;100011.22;4984858;28;103191;-67
2023/01/03 08:48:41;;;;;;;3.03;2.70;;;;;;;10.91;69.26;100010.19;4985794;28;102870;-67
2023/01/03 08:51:09;;;;;;;5.35;3.42;;;;;;;10.20;70.62;100010.41;4985596;28;102839;-67
2023/01/03 08:53:38;;;;;;;7.03;3.30;;;;;;;10.02;72.36;100014.75;4983477;28;103355;-67
2023/01/03 08:56:07;;;;;;;3.63;2.75;;;;;;;10.46;72.52;100013.44;4991304;28;103495;-67
2023/01/03 08:58:37;;;;;;;3.97;2.95;;;;;;;10.70;71.63;100018.38;4983256;28;102730;-67
2023/01/03 09:01:05;;;;;;;4.00;2.53;;;;;;;10.90;70.90;100016.41;4990426;28;103902;-67
2023/01/03 09:03:35;;;;;;;3.37;2.73;;;;;;;10.96;70.35;100018.72;4992107;28;104135;-67
2023/01/03 09:06:04;;;;;;;3.03;2.67;;;;;;;11.16;70.55;100019.44;4997352;28;103222;-67
2023/01/03 09:08:34;;;;;;;3.08;2.25;;;;;;;11.26;70.39;100020.66;4995886;28;102966;-67
2023/01/03 09:11:04;;;;;;;6.53;3.50;;;;;;;10.94;71.32;100020.59;4995101;28;102938;-67
2023/01/03 09:13:33;;;;;;;4.75;3.20;;;;;;;11.09;70.88;100020.72;4994860;28;103271;-67
2023/01/03 09:16:02;;;;;;;5.47;3.60;;;;;;;10.97;71.57;100025.75;4997454;28;103312;-67
2023/01/03 09:18:30;;;;;;;3.70;3.00;;;;;;;11.06;71.58;100030.50;4994042;28;102924;-66
2023/01/03 09:21:01;;;;;;;5.20;3.25;;;;;;;10.88;71.77;100034.16;4997118;28;102701;-66
2023/01/03 09:23:30;;;;;;;6.22;3.58;;;;;;;10.45;74.21;100037.28;4993292;28;103294;-66
2023/01/03 09:25:58;;;;;;;5.65;4.00;;;;;;;9.75;77.45;100040.72;4993911;28;103183;-66
2023/01/03 09:28:26;;;;;;;6.10;3.97;;;;;;;9.79;77.08;100037.03;4998038;28;102590;-67
2023/01/03 09:30:55;;;;;;;5.57;3.90;;;;;;;9.58;78.63;100042.44;4997384;28;104024;-67
2023/01/03 09:33:23;;;;;;;6.88;4.30;;;;;;;9.16;80.39;100048.78;4993986;28;103848;-66
2023/01/03 09:35:52;;;;;;;6.78;5.10;;;;;;;8.84;82.61;100053.81;4998717;28;103218;-67
2023/01/03 09:38:23;;;;;;;7.03;4.90;;;;;;;8.74;82.78;100062.09;4996426;28;102552;-67
2023/01/03 09:40:59;;;;;;;8.02;4.53;;;;;;;8.91;82.30;100055.22;4996822;28;102790;-66
2023/01/03 09:43:35;;;;;;;6.70;4.38;;;;;;;8.81;83.39;100053.94;4996036;28;103702;-67
2023/01/03 09:46:05;;;;;;;5.00;4.57;;;;;;;8.45;84.68;100061.66;5007991;28;103143;-66
2023/01/03 09:48:36;;;;;;;5.35;4.60;;;;;;;8.92;83.80;100062.22;4993846;28;102689;-67
2023/01/03 10:03:42;;;;;;;6.78;4.35;;;;;;;9.18;81.34;100059.25;4997783;28;102693;-66
2023/01/03 10:05:36;;;;;;;5.30;4.25;;;;;;;9.10;82.03;100062.25;4991442;28;103676;-66
2023/01/03 10:08:17;;;;;;;6.27;4.10;;;;;;;9.07;82.40;100066.78;4996947;28;103182;-67
2023/01/03 10:10:57;;;;;;;4.90;3.92;;;;;;;9.13;81.72;100055.97;4996446;28;102715;-67
2023/01/03 10:13:38;;;;;;;6.55;3.78;;;;;;;9.13;83.45;100061.25;4995176;28;103160;-67
2023/01/03 10:16:14;;;;;;;5.37;4.10;;;;;;;9.41;82.06;100061.72;4991674;28;103230;-66
2023/01/03 10:18:59;;;;;;;4.47;3.80;;;;;;;9.33;80.93;100058.56;4993559;28;103310;-66
2023/01/03 10:21:38;;;;;;;4.10;3.70;;;;;;;9.57;80.65;100057.44;4992699;28;102844;-66
2023/01/03 10:24:16;;;;;;;5.25;3.50;;;;;;;9.85;79.28;100055.19;4993766;28;103192;-66
2023/01/03 10:26:48;;;;;;;4.53;3.60;;;;;;;10.02;77.48;100053.53;4993658;28;103242;-66
2023/01/03 10:29:18;;;;;;;5.25;3.88;;;;;;;9.31;80.25;100068.34;4994550;28;103263;-67
2023/01/03 10:32:02;;;;;;;5.32;4.22;;;;;;;9.50;81.14;100061.28;5010398;28;102740;-66
2023/01/03 10:34:30;;;;;;;5.82;3.78;;;;;;;9.54;80.14;100065.50;4995363;28;102830;-66
2023/01/03 10:36:58;;;;;;;4.20;3.70;;;;;;;9.70;80.84;100065.63;4992580;28;103335;-66
2023/01/03 10:39:30;;;;;;;4.32;3.92;;;;;;;9.70;80.20;100063.00;4996369;28;103394;-66
2023/01/03 10:42:00;;;;;;;4.38;3.97;;;;;;;10.07;79.05;100062.09;4993196;28;102632;-66
2023/01/03 10:44:30;;;;;;;4.57;3.50;;;;;;;10.55;77.06;100049.13;4994194;28;102711;-66
2023/01/03 10:47:07;;;;;;;3.67;3.22;;;;;;;11.52;73.90;100044.75;4996686;28;103278;-66
2023/01/03 10:49:35;;;;;;;4.18;3.72;;;;;;;11.47;72.15;100045.94;4995915;28;103489;-66
2023/01/03 10:52:10;;;;;;;4.82;3.92;;;;;;;11.23;72.43;100042.00;4993107;28;102769;-66
2023/01/03 10:54:48;;;;;;;3.70;3.40;;;;;;;11.68;72.80;100034.16;4992186;28;102788;-67
2023/01/03 10:57:42;;;;;;;7.07;4.20;;;;;;;11.76;70.84;100025.84;4993503;28;104356;-67
2023/01/03 11:00:29;;;;;;;6.60;4.10;;;;;;;11.56;71.52;100024.28;4994346;28;103226;-66
2023/01/03 11:03:11;;;;;;;5.20;3.90;;;;;;;11.77;71.48;100020.44;4992525;28;103152;-67
2023/01/03 11:05:41;;;;;;;3.40;3.10;;;;;;;12.96;68.57;100009.81;4992157;28;102958;-66
2023/01/03 11:08:21;;;;;;;3.65;3.33;;;;;;;13.49;66.53;100005.63;4991053;28;103419;-67
2023/01/03 11:10:52;;;;;;;4.32;3.83;;;;;;;13.67;65.19;100010.59;4987975;28;103124;-66
2023/01/03 11:13:29;;;;;;;5.07;3.65;;;;;;;14.03;63.53;100003.88;4993113;28;102754;-65
2023/01/03 11:15:59;;;;;;;3.85;3.25;;;;;;;14.20;61.99;100007.13;4991859;28;102791;-66
2023/01/03 11:18:28;;;;;;;3.85;2.97;;;;;;;14.54;60.04;100012.84;4994400;28;104200;-66
2023/01/03 11:21:06;;;;;;;3.42;2.42;;;;;;;14.41;61.69;100002.19;4990824;28;103281;-66
2023/01/03 11:24:07;;;;;;;2.30;2.10;;;;;;;14.37;59.85;100009.50;4994985;28;102736;-70
2023/01/03 11:26:44;;;;;;;2.40;2.13;;;;;;;14.91;58.64;99999.56;4989234;28;104665;-70
2023/01/03 11:29:36;;;;;;;4.50;2.58;;;;;;;15.09;57.95;100000.09;4992689;28;103149;-70
2023/01/03 11:32:20;;;;;;;4.43;2.70;;;;;;;15.14;58.17;99994.44;4989597;28;103166;-69
2023/01/03 11:35:12;;;;;;;3.20;2.53;;;;;;;15.03;58.29;99995.19;4993065;28;102702;-70
2023/01/03 11:38:01;;;;;;;5.05;2.60;;;;;;;14.84;58.14;100005.44;4992339;28;102786;-70
2023/01/03 11:40:35;;;;;;;4.03;2.60;;;;;;;15.38;56.79;99993.53;4994717;28;103272;-71
2023/01/03 11:43:18;;;;;;;3.30;2.30;;;;;;;15.41;55.26;99993.31;4995845;28;103460;-70
2023/01/03 11:46:07;;;;;;;2.40;2.07;;;;;;;14.88;56.32;99988.28;4994404;28;103325;-70
2023/01/03 11:48:55;;;;;;;2.50;2.30;;;;;;;15.18;54.40;99994.13;4996270;28;104448;-71
2023/01/03 11:51:30;;;;;;;2.97;2.07;;;;;;;15.40;55.34;99980.97;4991037;28;103997;-70
2023/01/03 11:54:04;;;;;;;2.47;2.03;;;;;;;15.84;54.47;99982.22;4993453;28;103463;-70
2023/01/03 11:56:36;;;;;;;4.45;2.80;;;;;;;15.68;54.72;99979.00;4993022;28;102753;-71
2023/01/03 11:59:38;;;;;;;2.60;2.40;;;;;;;16.06;52.76;99972.53;4990041;28;103106;-70
2023/01/03 12:02:50;;;;;;;2.88;2.50;;;;;;;16.63;53.25;99972.63;4895688;28;104274;-70
2023/01/03 12:05:47;;;;;;;2.72;2.22;;;;;;;15.51;54.04;99965.09;4992167;28;103173;-70
2023/01/03 12:08:48;;;;;;;2.75;2.05;;;;;;;15.70;54.89;99961.94;4993742;28;102729;-71
2023/01/03 12:11:38;;;;;;;2.70;1.87;;;;;;;16.10;52.54;99965.16;4998761;28;103354;-68
2023/01/03 12:14:13;;;;;;;2.90;2.08;;;;;;;16.02;52.67;99959.56;4999273;28;103462;-71
2023/01/03 12:16:45;;;;;;;2.20;2.00;;;;;;;15.78;52.29;99956.03;4995278;28;103217;-70
2023/01/03 12:19:26;;;;;;;3.13;2.17;;;;;;;16.09;51.78;99960.78;4995929;28;102719;-70
2023/01/03 12:21:58;;;;;;;2.13;1.80;;;;;;;16.21;51.07;99959.88;4990432;28;104476;-70
2023/01/03 12:24:32;;;;;;;2.22;1.80;;;;;;;15.79;50.92;99960.41;4993052;28;103195;-70
2023/01/03 12:27:10;;;;;;;3.25;1.58;;;;;;;16.66;49.97;99953.72;4991556;28;103204;-70
2023/01/03 12:29:51;;;;;;;1.55;1.40;;;;;;;16.77;48.62;99953.72;4992498;28;102671;-70
2023/01/03 12:32:28;;;;;;;2.07;1.23;;;;;;;16.43;49.39;99948.41;4990586;28;102775;-71
2023/01/03 12:35:11;;;;;;;2.83;1.70;;;;;;;16.25;49.98;99953.34;4991555;28;104191;-71
2023/01/03 12:37:41;;;;;;;2.57;1.80;;;;;;;16.37;50.57;99949.72;4991294;28;104172;-71
2023/01/03 12:40:20;;;;;;;4.03;1.75;;;;;;;16.57;49.21;99945.56;4995837;28;102761;-71
2023/01/03 12:42:58;;;;;;;6.53;1.90;;;;;;;16.94;48.79;99935.53;4993594;28;102738;-71
2023/01/03 12:45:40;;;;;;;3.00;2.00;;;;;;;15.70;50.99;99945.97;4995831;28;102989;-71
2023/01/03 12:48:28;;;;;;;2.63;1.73;;;;;;;16.74;49.08;99943.28;4995032;28;103243;-71
2023/01/03 12:50:57;;;;;;;2.73;1.80;;;;;;;16.42;49.46;99936.88;4996767;28;103399;-71
2023/01/03 12:53:30;;;;;;;2.08;1.80;;;;;;;16.28;50.50;99944.28;4995008;28;102693;-70
2023/01/03 12:56:18;;;;;;;2.95;1.80;;;;;;;15.56;51.16;99936.31;4997265;28;103405;-70
2023/01/03 12:59:00;;;;;;;2.38;1.42;;;;;;;16.06;50.32;99934.34;5011875;28;103210;-70
2023/01/03 13:01:37;;;;;;;2.10;1.20;;;;;;;16.51;49.38;99930.00;4997399;28;102702;-69
2023/01/03 13:04:14;;;;;;;2.88;1.40;;;;;;;15.97;50.28;99935.06;4994635;28;102981;-69
2023/01/03 13:07:03;;;;;;;2.28;1.48;;;;;;;15.54;50.78;99932.94;4991979;28;103289;-70